Terminal Aerodrome Forecast
Issued by NWS

Home | Current Version | Previous Version | Text Only | Print | Product List | Glossary Off
Versions: 1 2 3 4 5 6 7 8 9 10 11 12 13

906
FTUS43 KUNR 152320
TAFGCC
TAF
KGCC 152320Z 1600/1624 35008KT P6SM SCT090 BKN250
     FM160900 22008KT P6SM SCT120=

USA.gov is the U.S. government's official web portal to all federal, state and local government web resources and services.